Item Display Status Humidity-temperature Sensor

Elevation Above Sea Level: 3 m

 

Deployed Sensor

  • Serial Number: 20066135
  • NDBC Property Number: 40474
  • Start Date: 11/16/2018 (14:52:24 Z)
  • End Date: Currently Active
Relative Humidity [%]     6 entries per hour
Showing data from 10/9/2019 (15:00:00 Z) to 10/8/2019 (00:00:01 Z)
Previous Next [ Day | 3-Days | 7-Days ]
First Last
Prev [ Day | 3-Days | 7-Days ] Next
First Last

Start Time:     :
End Time:     :     
Time (in GMT) :00 :50 :40 :30 :20 :10
Previous Next [ Day | 3-Days | 7-Days ]
First Last
Prev [ Day | 3-Days | 7-Days ] Next
First Last


123 => good data
MM => data is determined as missing
-- => data not received/configured
Back to Top Back to Top
10/9/2019 15:00 to 14:10 86.97 87.70 88.24 86.07 86.07 86.13
10/9/2019 14:00 to 13:10 85.87 88.88 87.76 91.15 93.34 93.56
10/9/2019 13:00 to 12:10 93.94 95.51 96.29 97.16 96.67 95.97
10/9/2019 12:00 to 11:10 95.83 96.80 95.93 92.20 93.96 96.78
10/9/2019 11:00 to 10:10 97.42 97.84 97.62 97.00 97.06 96.21
10/9/2019 10:00 to 9:10 95.81 95.99 97.08 97.18 96.37 93.54
10/9/2019 09:00 to 8:10 93.02 93.48 93.36 90.57 92.88 92.46
10/9/2019 08:00 to 7:10 93.16 93.76 94.06 94.16 92.58 92.90
10/9/2019 07:00 to 6:10 92.58 92.30 91.91 93.64 93.50 91.97
10/9/2019 06:00 to 5:10 90.33 90.43 91.39 92.40 92.48 91.27
10/9/2019 05:00 to 4:10 91.53 93.46 91.41 92.20 94.22 95.13
10/9/2019 04:00 to 3:10 95.59 93.78 94.14 94.22 94.10 90.53
10/9/2019 03:00 to 2:10 88.58 87.66 87.41 86.59 88.02 90.79
10/9/2019 02:00 to 1:10 93.16 93.62 92.01 92.70 93.82 94.14
10/9/2019 01:00 to 0:10 95.13 94.95 95.37 94.89 94.00 94.63
10/9/2019 00:00 to 23:10 95.19 94.89 95.09 95.29 95.39 95.73
10/8/2019 23:00 to 22:10 94.89 95.43 94.43 94.24 94.75 95.99
10/8/2019 22:00 to 21:10 95.65 96.65 96.31 94.59 93.82 94.81
10/8/2019 21:00 to 20:10 96.78 97.84 98.28 98.16 97.70 97.94
10/8/2019 20:00 to 19:10 97.44 97.56 97.92 98.16 97.74 97.66
10/8/2019 19:00 to 18:10 99.63 99.43 99.67 99.55 99.17 99.13
10/8/2019 18:00 to 17:10 98.96 98.46 98.04 98.02 98.44 98.32
10/8/2019 17:00 to 16:10 97.94 97.30 95.23 94.30 93.32 91.27
10/8/2019 16:00 to 15:10 89.08 87.88 89.95 89.12 89.95 92.22
10/8/2019 15:00 to 14:10 90.63 89.70 93.28 94.61 92.22 92.20
10/8/2019 14:00 to 13:10 94.24 94.40 94.04 94.22 93.18 93.94
10/8/2019 13:00 to 12:10 93.90 95.65 97.60 98.00 97.96 97.94
10/8/2019 12:00 to 11:10 98.14 98.86 98.74 98.70 98.12 97.64
10/8/2019 11:00 to 10:10 97.06 96.31 93.24 91.41 85.69 85.21
10/8/2019 10:00 to 9:10 85.39 85.97 84.72 86.53 86.07 86.73
10/8/2019 09:00 to 8:10 86.67 84.84 85.97 87.33 87.05 86.89
10/8/2019 08:00 to 7:10 87.47 88.66 89.66 85.77 87.01 86.99
10/8/2019 07:00 to 6:10 87.68 85.95 86.43 87.33 87.35 88.52
10/8/2019 06:00 to 5:10 86.35 87.33 86.81 87.31 87.25 87.01
10/8/2019 05:00 to 4:10 87.01 87.29 87.35 88.04 88.44 88.66
10/8/2019 04:00 to 3:10 88.12 87.48 88.20 88.56 87.84 87.74
10/8/2019 03:00 to 2:10 88.70 88.56 89.12 89.32 88.76 88.48
10/8/2019 02:00 to 1:10 89.38 88.94 89.26 89.26 90.33 89.99
10/8/2019 01:00 to 0:10 89.89 89.28 88.18 88.46 88.62 89.02

 

 

 

Air Temperature [°C]     6 entries per hour
Showing data from 10/9/2019 (15:00:00 Z) to 10/8/2019 (00:00:01 Z)
Previous Next [ Day | 3-Days | 7-Days ]
First Last
Prev [ Day | 3-Days | 7-Days ] Next
First Last

Start Time:     :
End Time:     :     
Time (in GMT) :00 :50 :40 :30 :20 :10
Previous Next [ Day | 3-Days | 7-Days ]
First Last
Prev [ Day | 3-Days | 7-Days ] Next
First Last


123 => good data
MM => data is determined as missing
-- => data not received/configured
Back to Top Back to Top
10/9/2019 15:00 to 14:10 26.26 26.15 26.20 26.20 26.11 26.25
10/9/2019 14:00 to 13:10 26.27 26.03 26.25 26.14 25.50 25.09
10/9/2019 13:00 to 12:10 25.23 25.42 24.85 24.69 24.93 24.99
10/9/2019 12:00 to 11:10 24.79 24.76 24.86 25.46 25.45 24.98
10/9/2019 11:00 to 10:10 24.63 24.33 24.47 24.28 24.81 25.22
10/9/2019 10:00 to 9:10 25.11 24.95 25.02 24.70 25.00 25.61
10/9/2019 09:00 to 8:10 25.74 25.60 25.63 26.04 25.59 25.69
10/9/2019 08:00 to 7:10 25.73 25.48 25.52 25.37 25.65 25.66
10/9/2019 07:00 to 6:10 25.73 25.70 25.65 25.58 25.60 25.60
10/9/2019 06:00 to 5:10 25.60 25.82 25.71 25.42 25.43 25.56
10/9/2019 05:00 to 4:10 25.83 25.75 25.79 25.81 25.71 25.35
10/9/2019 04:00 to 3:10 25.27 25.90 25.64 25.43 25.38 26.16
10/9/2019 03:00 to 2:10 26.23 26.11 25.92 25.95 25.69 25.65
10/9/2019 02:00 to 1:10 25.66 25.59 25.65 25.45 25.49 25.34
10/9/2019 01:00 to 0:10 25.22 25.13 25.15 25.50 25.29 25.33
10/9/2019 00:00 to 23:10 25.20 25.27 25.26 25.14 25.14 25.27
10/8/2019 23:00 to 22:10 24.91 25.12 25.35 24.94 25.03 25.02
10/8/2019 22:00 to 21:10 24.95 25.07 25.00 24.83 25.03 24.79
10/8/2019 21:00 to 20:10 24.67 24.69 24.86 24.79 24.73 24.72
10/8/2019 20:00 to 19:10 24.60 24.69 24.72 24.64 25.08 25.22
10/8/2019 19:00 to 18:10 25.01 24.37 24.49 24.25 24.74 24.52
10/8/2019 18:00 to 17:10 24.29 24.09 24.15 24.07 24.43 24.50
10/8/2019 17:00 to 16:10 24.61 24.77 24.62 24.58 26.34 26.67
10/8/2019 16:00 to 15:10 26.69 26.70 26.68 26.76 26.65 26.29
10/8/2019 15:00 to 14:10 26.07 25.92 25.62 25.74 25.61 25.51
10/8/2019 14:00 to 13:10 25.40 25.43 25.52 25.43 26.05 26.04
10/8/2019 13:00 to 12:10 25.93 25.71 25.31 25.05 25.15 24.88
10/8/2019 12:00 to 11:10 24.96 24.74 24.35 24.57 25.07 25.15
10/8/2019 11:00 to 10:10 25.03 25.34 25.84 25.94 26.72 26.76
10/8/2019 10:00 to 9:10 26.73 26.81 26.79 26.86 26.78 26.71
10/8/2019 09:00 to 8:10 26.83 26.75 26.74 26.80 26.82 26.81
10/8/2019 08:00 to 7:10 26.74 26.62 26.70 26.83 26.69 26.77
10/8/2019 07:00 to 6:10 26.83 26.84 26.76 26.75 26.78 26.74
10/8/2019 06:00 to 5:10 26.50 26.91 26.90 26.82 26.78 26.90
10/8/2019 05:00 to 4:10 26.87 26.86 26.89 26.97 26.84 26.85
10/8/2019 04:00 to 3:10 27.00 26.88 26.81 26.86 26.82 26.83
10/8/2019 03:00 to 2:10 26.82 26.73 26.77 26.77 26.73 26.74
10/8/2019 02:00 to 1:10 26.81 26.69 26.72 26.74 26.62 26.57
10/8/2019 01:00 to 0:10 26.42 26.43 26.45 26.37 26.43 26.46